sensor_id;sensor_type;location;lat;lon;timestamp;pressure;altitude;pressure_sealevel;temperature;humidity
42511;BME280;28141;51.120;17.114;2022-11-09T00:02:02;101495.98;;;27.49;32.92
42511;BME280;28141;51.120;17.114;2022-11-09T00:05:07;101476.26;;;27.51;33.05
42511;BME280;28141;51.120;17.114;2022-11-09T00:08:11;101489.95;;;27.52;33.22
42511;BME280;28141;51.120;17.114;2022-11-09T00:11:14;101487.77;;;27.54;32.60
42511;BME280;28141;51.120;17.114;2022-11-09T00:14:17;101493.12;;;27.56;33.34
42511;BME280;28141;51.120;17.114;2022-11-09T00:17:21;101478.36;;;27.55;32.93
42511;BME280;28141;51.120;17.114;2022-11-09T00:20:24;101478.57;;;27.54;33.38
42511;BME280;28141;51.120;17.114;2022-11-09T00:23:28;101472.80;;;27.55;33.34
42511;BME280;28141;51.120;17.114;2022-11-09T00:26:31;101474.50;;;27.56;33.14
42511;BME280;28141;51.120;17.114;2022-11-09T00:29:34;101468.08;;;27.56;33.34
42511;BME280;28141;51.120;17.114;2022-11-09T00:33:04;101468.52;;;27.53;33.07
42511;BME280;28141;51.120;17.114;2022-11-09T00:36:13;101482.67;;;27.51;33.23
42511;BME280;28141;51.120;17.114;2022-11-09T00:39:16;101475.07;;;27.47;33.18
42511;BME280;28141;51.120;17.114;2022-11-09T00:42:19;101480.98;;;27.50;33.12
42511;BME280;28141;51.120;17.114;2022-11-09T00:45:23;101470.22;;;27.54;33.08
42511;BME280;28141;51.120;17.114;2022-11-09T00:48:26;101465.75;;;27.53;33.07
42511;BME280;28141;51.120;17.114;2022-11-09T00:51:29;101465.98;;;27.51;32.64
42511;BME280;28141;51.120;17.114;2022-11-09T00:54:33;101480.98;;;27.50;32.89
42511;BME280;28141;51.120;17.114;2022-11-09T00:57:36;101486.20;;;27.47;33.24
42511;BME280;28141;51.120;17.114;2022-11-09T01:00:39;101482.30;;;27.48;33.39
42511;BME280;28141;51.120;17.114;2022-11-09T01:03:44;101478.66;;;27.47;33.31
42511;BME280;28141;51.120;17.114;2022-11-09T01:07:13;101475.55;;;27.44;33.17
42511;BME280;28141;51.120;17.114;2022-11-09T01:10:17;101477.24;;;27.45;33.13
42511;BME280;28141;51.120;17.114;2022-11-09T01:13:20;101471.91;;;27.43;33.28
42511;BME280;28141;51.120;17.114;2022-11-09T01:16:23;101474.69;;;27.43;33.20
42511;BME280;28141;51.120;17.114;2022-11-09T01:19:27;101457.99;;;27.43;32.71
42511;BME280;28141;51.120;17.114;2022-11-09T01:22:31;101461.88;;;27.42;33.27
42511;BME280;28141;51.120;17.114;2022-11-09T01:25:35;101461.49;;;27.39;32.93
42511;BME280;28141;51.120;17.114;2022-11-09T01:28:39;101466.20;;;27.38;33.53
42511;BME280;28141;51.120;17.114;2022-11-09T01:31:42;101465.62;;;27.36;33.82
42511;BME280;28141;51.120;17.114;2022-11-09T01:34:46;101469.73;;;27.34;33.23
42511;BME280;28141;51.120;17.114;2022-11-09T01:37:49;101472.27;;;27.35;33.05
42511;BME280;28141;51.120;17.114;2022-11-09T01:40:52;101453.03;;;27.34;33.46
42511;BME280;28141;51.120;17.114;2022-11-09T01:44:24;101456.05;;;27.32;33.27
42511;BME280;28141;51.120;17.114;2022-11-09T01:47:29;101453.27;;;27.32;33.29
42511;BME280;28141;51.120;17.114;2022-11-09T01:53:51;101449.15;;;27.23;33.46
42511;BME280;28141;51.120;17.114;2022-11-09T01:57:00;101446.13;;;27.24;33.31
42511;BME280;28141;51.120;17.114;2022-11-09T02:00:11;101446.98;;;27.25;33.36
42511;BME280;28141;51.120;17.114;2022-11-09T02:06:56;101444.66;;;27.22;33.80
42511;BME280;28141;51.120;17.114;2022-11-09T02:10:09;101446.60;;;27.21;33.49
42511;BME280;28141;51.120;17.114;2022-11-09T02:13:15;101441.75;;;27.17;33.34
42511;BME280;28141;51.120;17.114;2022-11-09T02:16:21;101443.20;;;27.19;33.52
42511;BME280;28141;51.120;17.114;2022-11-09T02:19:24;101442.59;;;27.17;33.56
42511;BME280;28141;51.120;17.114;2022-11-09T02:22:28;101446.11;;;27.13;33.40
42511;BME280;28141;51.120;17.114;2022-11-09T02:26:04;101449.13;;;27.11;33.42
42511;BME280;28141;51.120;17.114;2022-11-09T02:29:12;101446.34;;;27.11;33.54
42511;BME280;28141;51.120;17.114;2022-11-09T02:32:19;101445.73;;;27.09;33.50
42511;BME280;28141;51.120;17.114;2022-11-09T02:35:23;101443.57;;;27.11;33.20
42511;BME280;28141;51.120;17.114;2022-11-09T02:38:26;101442.72;;;27.11;33.29
42511;BME280;28141;51.120;17.114;2022-11-09T02:41:31;101439.94;;;27.11;33.57
42511;BME280;28141;51.120;17.114;2022-11-09T02:44:38;101445.26;;;27.12;33.48
42511;BME280;28141;51.120;17.114;2022-11-09T02:47:43;101439.33;;;27.09;33.53
42511;BME280;28141;51.120;17.114;2022-11-09T02:51:12;101442.80;;;27.04;33.44
42511;BME280;28141;51.120;17.114;2022-11-09T02:54:15;101451.15;;;27.04;33.12
42511;BME280;28141;51.120;17.114;2022-11-09T02:57:19;101451.41;;;27.03;33.57
42511;BME280;28141;51.120;17.114;2022-11-09T03:00:22;101446.32;;;27.00;33.40
42511;BME280;28141;51.120;17.114;2022-11-09T03:03:26;101445.47;;;26.99;33.59
42511;BME280;28141;51.120;17.114;2022-11-09T03:06:29;101444.16;;;27.02;33.44
42511;BME280;28141;51.120;17.114;2022-11-09T03:09:38;101455.59;;;26.94;33.86
42511;BME280;28141;51.120;17.114;2022-11-09T03:12:42;101446.17;;;26.95;33.53
42511;BME280;28141;51.120;17.114;2022-11-09T03:15:45;101451.49;;;26.96;32.97
42511;BME280;28141;51.120;17.114;2022-11-09T03:18:49;101456.21;;;26.96;33.63
42511;BME280;28141;51.120;17.114;2022-11-09T03:22:21;101463.12;;;26.93;33.58
42511;BME280;28141;51.120;17.114;2022-11-09T03:25:25;101461.42;;;26.92;33.56
42511;BME280;28141;51.120;17.114;2022-11-09T03:28:29;101470.11;;;26.96;33.51
42511;BME280;28141;51.120;17.114;2022-11-09T03:31:32;101460.06;;;26.95;33.53
42511;BME280;28141;51.120;17.114;2022-11-09T03:34:35;101464.79;;;26.94;33.51
42511;BME280;28141;51.120;17.114;2022-11-09T03:37:39;101469.49;;;26.94;33.51
42511;BME280;28141;51.120;17.114;2022-11-09T03:40:42;101463.31;;;26.92;33.79
42511;BME280;28141;51.120;17.114;2022-11-09T03:43:45;101470.80;;;26.91;33.51
42511;BME280;28141;51.120;17.114;2022-11-09T03:46:49;101461.42;;;26.92;33.68
42511;BME280;28141;51.120;17.114;2022-11-09T03:49:52;101458.37;;;26.94;33.69
42511;BME280;28141;51.120;17.114;2022-11-09T03:52:59;101467.83;;;26.93;33.28
42511;BME280;28141;51.120;17.114;2022-11-09T03:56:28;101468.26;;;26.89;33.60
42511;BME280;28141;51.120;17.114;2022-11-09T03:59:32;101455.44;;;26.88;33.82
42511;BME280;28141;51.120;17.114;2022-11-09T04:02:35;101454.98;;;26.92;33.65
42511;BME280;28141;51.120;17.114;2022-11-09T04:05:38;101442.80;;;26.93;33.52
42511;BME280;28141;51.120;17.114;2022-11-09T04:08:41;101451.15;;;26.93;33.35
42511;BME280;28141;51.120;17.114;2022-11-09T04:11:45;101450.04;;;26.94;33.11
42511;BME280;28141;51.120;17.114;2022-11-09T04:14:48;101442.80;;;26.93;32.95
42511;BME280;28141;51.120;17.114;2022-11-09T04:17:58;101448.10;;;26.94;33.00
42511;BME280;28141;51.120;17.114;2022-11-09T04:21:02;101436.59;;;26.90;33.16
42511;BME280;28141;51.120;17.114;2022-11-09T04:24:32;101446.63;;;26.92;32.92
42511;BME280;28141;51.120;17.114;2022-11-09T04:27:35;101436.13;;;26.94;32.93
42511;BME280;28141;51.120;17.114;2022-11-09T04:30:39;101440.61;;;26.95;32.80
42511;BME280;28141;51.120;17.114;2022-11-09T04:33:43;101441.23;;;26.97;32.67
42511;BME280;28141;51.120;17.114;2022-11-09T04:36:46;101453.42;;;26.96;32.51
42511;BME280;28141;51.120;17.114;2022-11-09T04:39:49;101449.56;;;26.97;32.35
42511;BME280;28141;51.120;17.114;2022-11-09T04:42:53;101451.49;;;26.96;32.30
42511;BME280;28141;51.120;17.114;2022-11-09T04:46:03;101445.09;;;26.96;32.39
42511;BME280;28141;51.120;17.114;2022-11-09T04:49:31;101441.95;;;26.92;32.36
42511;BME280;28141;51.120;17.114;2022-11-09T04:52:34;101435.31;;;26.93;31.69
42511;BME280;28141;51.120;17.114;2022-11-09T04:55:38;101424.40;;;26.92;32.19
42511;BME280;28141;51.120;17.114;2022-11-09T04:58:42;101420.57;;;26.93;32.17
42511;BME280;28141;51.120;17.114;2022-11-09T05:01:45;101423.92;;;26.95;31.96
42511;BME280;28141;51.120;17.114;2022-11-09T05:04:49;101425.39;;;26.97;32.38
42511;BME280;28141;51.120;17.114;2022-11-09T05:07:52;101427.09;;;26.98;32.29
42511;BME280;28141;51.120;17.114;2022-11-09T05:10:56;101430.25;;;27.02;31.83
42511;BME280;28141;51.120;17.114;2022-11-09T05:14:00;101433.50;;;26.99;31.93
42511;BME280;28141;51.120;17.114;2022-11-09T05:17:28;101439.91;;;26.99;31.93
42511;BME280;28141;51.120;17.114;2022-11-09T05:20:32;101438.59;;;27.02;31.95
42511;BME280;28141;51.120;17.114;2022-11-09T05:23:36;101440.30;;;27.03;31.95
42511;BME280;28141;51.120;17.114;2022-11-09T05:26:51;101431.42;;;26.94;31.96
42511;BME280;28141;51.120;17.114;2022-11-09T05:29:55;101433.50;;;26.99;31.90
42511;BME280;28141;51.120;17.114;2022-11-09T05:32:59;101425.30;;;27.04;31.69
42511;BME280;28141;51.120;17.114;2022-11-09T05:36:02;101426.03;;;27.11;31.30
42511;BME280;28141;51.120;17.114;2022-11-09T05:39:30;101431.13;;;27.14;31.61
42511;BME280;28141;51.120;17.114;2022-11-09T05:42:37;101426.41;;;27.14;31.41
42511;BME280;28141;51.120;17.114;2022-11-09T05:45:41;101422.89;;;27.19;31.66
42511;BME280;28141;51.120;17.114;2022-11-09T05:48:46;101424.59;;;27.20;31.38
42511;BME280;28141;51.120;17.114;2022-11-09T05:51:49;101425.81;;;27.24;31.47
42511;BME280;28141;51.120;17.114;2022-11-09T05:54:52;101434.27;;;27.29;31.60
42511;BME280;28141;51.120;17.114;2022-11-09T05:57:56;101438.28;;;27.33;31.85
42511;BME280;28141;51.120;17.114;2022-11-09T06:00:59;101446.61;;;27.33;31.24
42511;BME280;28141;51.120;17.114;2022-11-09T06:04:30;101444.45;;;27.35;31.33
42511;BME280;28141;51.120;17.114;2022-11-09T06:07:34;101431.13;;;27.37;30.91
42511;BME280;28141;51.120;17.114;2022-11-09T06:10:38;101425.56;;;27.37;30.91
42511;BME280;28141;51.120;17.114;2022-11-09T06:13:41;101432.34;;;27.41;31.07
42511;BME280;28141;51.120;17.114;2022-11-09T06:16:44;101437.54;;;27.38;31.11
42511;BME280;28141;51.120;17.114;2022-11-09T06:19:48;101445.54;;;27.34;31.32
42511;BME280;28141;51.120;17.114;2022-11-09T06:22:55;101445.88;;;27.38;31.22
42511;BME280;28141;51.120;17.114;2022-11-09T06:26:05;101440.22;;;27.44;31.32
42511;BME280;28141;51.120;17.114;2022-11-09T06:29:35;101446.13;;;27.48;31.25
42511;BME280;28141;51.120;17.114;2022-11-09T06:32:39;101443.10;;;27.49;31.37
42511;BME280;28141;51.120;17.114;2022-11-09T06:35:42;101450.60;;;27.49;31.29
42511;BME280;28141;51.120;17.114;2022-11-09T06:38:49;101456.95;;;27.56;31.03
42511;BME280;28141;51.120;17.114;2022-11-09T06:41:53;101465.30;;;27.56;31.55
42511;BME280;28141;51.120;17.114;2022-11-09T06:44:56;101462.28;;;27.57;31.09
42511;BME280;28141;51.120;17.114;2022-11-09T06:48:02;101455.73;;;27.64;31.03
42511;BME280;28141;51.120;17.114;2022-11-09T06:51:06;101462.15;;;27.64;30.85
42511;BME280;28141;51.120;17.114;2022-11-09T06:54:34;101465.78;;;27.65;31.12
42511;BME280;28141;51.120;17.114;2022-11-09T06:57:37;101452.48;;;27.67;31.26
42511;BME280;28141;51.120;17.114;2022-11-09T07:00:42;101445.55;;;27.69;31.46
42511;BME280;28141;51.120;17.114;2022-11-09T07:03:46;101443.15;;;27.73;31.45
42511;BME280;28141;51.120;17.114;2022-11-09T07:06:49;101442.41;;;27.77;31.12
42511;BME280;28141;51.120;17.114;2022-11-09T07:09:53;101447.75;;;27.79;31.81
42511;BME280;28141;51.120;17.114;2022-11-09T07:12:59;101454.98;;;27.80;31.53
42511;BME280;28141;51.120;17.114;2022-11-09T07:16:05;101454.27;;;27.84;31.84
42511;BME280;28141;51.120;17.114;2022-11-09T07:19:36;101447.62;;;27.85;31.49
42511;BME280;28141;51.120;17.114;2022-11-09T07:22:39;101441.20;;;27.85;31.92
42511;BME280;28141;51.120;17.114;2022-11-09T07:25:44;101445.20;;;27.89;31.42
42511;BME280;28141;51.120;17.114;2022-11-09T07:28:47;101451.85;;;27.88;30.83
42511;BME280;28141;51.120;17.114;2022-11-09T07:31:51;101451.61;;;27.89;30.72
42511;BME280;28141;51.120;17.114;2022-11-09T07:34:54;101465.87;;;27.93;31.43
42511;BME280;28141;51.120;17.114;2022-11-09T07:37:59;101474.35;;;27.98;31.33
42511;BME280;28141;51.120;17.114;2022-11-09T07:41:04;101479.17;;;28.03;30.94
42511;BME280;28141;51.120;17.114;2022-11-09T07:44:35;101481.11;;;28.02;31.26
42511;BME280;28141;51.120;17.114;2022-11-09T07:47:38;101482.94;;;28.08;30.79
42511;BME280;28141;51.120;17.114;2022-11-09T07:50:42;101484.13;;;28.12;31.33
42511;BME280;28141;51.120;17.114;2022-11-09T07:53:45;101473.99;;;28.18;31.05
42511;BME280;28141;51.120;17.114;2022-11-09T07:56:49;101471.80;;;28.20;31.25
42511;BME280;28141;51.120;17.114;2022-11-09T07:59:52;101453.25;;;28.25;31.45
42511;BME280;28141;51.120;17.114;2022-11-09T08:02:56;101460.63;;;28.31;31.84
42511;BME280;28141;51.120;17.114;2022-11-09T08:05:59;101454.06;;;28.38;30.95
42511;BME280;28141;51.120;17.114;2022-11-09T08:09:03;101457.55;;;28.45;31.62
42511;BME280;28141;51.120;17.114;2022-11-09T08:12:06;101457.66;;;28.50;31.29
42511;BME280;28141;51.120;17.114;2022-11-09T08:15:10;101475.07;;;28.57;31.17
42511;BME280;28141;51.120;17.114;2022-11-09T08:18:40;101472.40;;;28.62;31.33
42511;BME280;28141;51.120;17.114;2022-11-09T08:21:43;101456.03;;;28.65;31.22
42511;BME280;28141;51.120;17.114;2022-11-09T08:24:46;101456.60;;;28.67;31.21
42511;BME280;28141;51.120;17.114;2022-11-09T08:27:50;101468.71;;;28.73;31.27
42511;BME280;28141;51.120;17.114;2022-11-09T08:30:56;101459.37;;;28.79;31.22
42511;BME280;28141;51.120;17.114;2022-11-09T08:34:00;101462.87;;;28.86;30.80
42511;BME280;28141;51.120;17.114;2022-11-09T08:37:03;101450.70;;;28.92;30.70
42511;BME280;28141;51.120;17.114;2022-11-09T08:40:08;101456.45;;;29.02;31.08
42511;BME280;28141;51.120;17.114;2022-11-09T08:43:12;101458.58;;;29.12;30.97
42511;BME280;28141;51.120;17.114;2022-11-09T08:46:15;101454.80;;;29.18;31.02
42511;BME280;28141;51.120;17.114;2022-11-09T08:49:45;101464.19;;;29.29;31.06
42511;BME280;28141;51.120;17.114;2022-11-09T08:52:50;101458.21;;;29.37;30.91
42511;BME280;28141;51.120;17.114;2022-11-09T08:55:53;101445.51;;;29.46;31.14
42511;BME280;28141;51.120;17.114;2022-11-09T08:58:56;101453.73;;;29.53;31.24
42511;BME280;28141;51.120;17.114;2022-11-09T09:02:00;101445.41;;;29.58;30.87
42511;BME280;28141;51.120;17.114;2022-11-09T09:05:04;101448.37;;;29.68;30.48
42511;BME280;28141;51.120;17.114;2022-11-09T09:08:07;101447.91;;;29.76;31.53
42511;BME280;28141;51.120;17.114;2022-11-09T09:11:14;101459.23;;;29.86;30.83
42511;BME280;28141;51.120;17.114;2022-11-09T09:14:19;101469.40;;;29.92;31.77
42511;BME280;28141;51.120;17.114;2022-11-09T09:17:23;101466.44;;;29.99;31.03
42511;BME280;28141;51.120;17.114;2022-11-09T09:20:27;101458.73;;;30.06;31.54
42511;BME280;28141;51.120;17.114;2022-11-09T09:23:59;101469.62;;;30.07;31.00
42511;BME280;28141;51.120;17.114;2022-11-09T09:27:02;101461.83;;;30.09;30.62
42511;BME280;28141;51.120;17.114;2022-11-09T09:30:07;101458.52;;;30.12;30.92
42511;BME280;28141;51.120;17.114;2022-11-09T09:33:11;101456.07;;;30.16;31.70
42511;BME280;28141;51.120;17.114;2022-11-09T09:36:20;101466.70;;;30.19;31.88
42511;BME280;28141;51.120;17.114;2022-11-09T09:39:24;101469.24;;;30.21;30.16
42511;BME280;28141;51.120;17.114;2022-11-09T09:42:36;101467.89;;;30.23;31.42
42511;BME280;28141;51.120;17.114;2022-11-09T09:45:47;101476.87;;;30.25;30.35
42511;BME280;28141;51.120;17.114;2022-11-09T09:49:26;101470.22;;;30.31;30.83
42511;BME280;28141;51.120;17.114;2022-11-09T09:55:52;101457.30;;;30.25;30.39
42511;BME280;28141;51.120;17.114;2022-11-09T09:59:05;101452.95;;;30.34;30.70
42511;BME280;28141;51.120;17.114;2022-11-09T10:15:51;101450.15;;;30.34;29.61
42511;BME280;28141;51.120;17.114;2022-11-09T10:19:33;101454.96;;;30.39;30.33
42511;BME280;28141;51.120;17.114;2022-11-09T10:26:04;101450.52;;;30.43;29.60
42511;BME280;28141;51.120;17.114;2022-11-09T10:29:20;101450.60;;;30.48;29.89
42511;BME280;28141;51.120;17.114;2022-11-09T10:33:00;101449.31;;;30.56;30.00
42511;BME280;28141;51.120;17.114;2022-11-09T10:39:27;101462.23;;;30.62;29.54
42511;BME280;28141;51.120;17.114;2022-11-09T10:42:34;101462.08;;;30.73;29.99
42511;BME280;28141;51.120;17.114;2022-11-09T10:45:40;101457.73;;;30.82;29.50
42511;BME280;28141;51.120;17.114;2022-11-09T10:49:19;101451.38;;;30.92;29.59
42511;BME280;28141;51.120;17.114;2022-11-09T10:52:31;101452.03;;;31.04;29.92
42511;BME280;28141;51.120;17.114;2022-11-09T10:58:55;101446.45;;;31.04;30.22
42511;BME280;28141;51.120;17.114;2022-11-09T11:01:58;101439.83;;;31.10;29.62
42511;BME280;28141;51.120;17.114;2022-11-09T11:05:19;101451.05;;;31.15;29.84
42511;BME280;28141;51.120;17.114;2022-11-09T11:08:49;101444.91;;;31.13;30.08
42511;BME280;28141;51.120;17.114;2022-11-09T11:18:25;101432.30;;;31.16;30.64
42511;BME280;28141;51.120;17.114;2022-11-09T11:21:29;101432.38;;;31.26;30.47
42511;BME280;28141;51.120;17.114;2022-11-09T11:28:23;101446.71;;;31.30;30.56
42511;BME280;28141;51.120;17.114;2022-11-09T11:31:29;101430.52;;;31.37;30.17
42511;BME280;28141;51.120;17.114;2022-11-09T11:34:34;101426.66;;;31.43;30.29
42511;BME280;28141;51.120;17.114;2022-11-09T11:37:54;101421.38;;;31.46;29.53
42511;BME280;28141;51.120;17.114;2022-11-09T11:48:05;101451.94;;;31.53;30.13
42511;BME280;28141;51.120;17.114;2022-11-09T11:51:13;101460.86;;;31.50;29.78
42511;BME280;28141;51.120;17.114;2022-11-09T11:55:00;101459.22;;;31.54;29.65
42511;BME280;28141;51.120;17.114;2022-11-09T12:01:28;101449.91;;;31.43;29.81
42511;BME280;28141;51.120;17.114;2022-11-09T12:04:47;101440.67;;;31.48;30.01
42511;BME280;28141;51.120;17.114;2022-11-09T12:08:22;101446.52;;;31.41;29.79
42511;BME280;28141;51.120;17.114;2022-11-09T12:18:08;101456.29;;;31.39;29.65
42511;BME280;28141;51.120;17.114;2022-11-09T12:21:45;101452.65;;;31.38;29.94
42511;BME280;28141;51.120;17.114;2022-11-09T12:24:58;101446.28;;;31.48;29.50
42511;BME280;28141;51.120;17.114;2022-11-09T12:28:20;101449.08;;;31.48;29.54
42511;BME280;28141;51.120;17.114;2022-11-09T12:38:20;101434.53;;;31.46;29.24
42511;BME280;28141;51.120;17.114;2022-11-09T12:41:30;101430.64;;;31.52;28.50
42511;BME280;28141;51.120;17.114;2022-11-09T12:45:03;101426.73;;;31.53;28.11
42511;BME280;28141;51.120;17.114;2022-11-09T12:48:28;101424.45;;;31.50;28.19
42511;BME280;28141;51.120;17.114;2022-11-09T12:51:33;101426.73;;;31.53;27.75
42511;BME280;28141;51.120;17.114;2022-11-09T12:54:43;101423.13;;;31.58;27.81
42511;BME280;28141;51.120;17.114;2022-11-09T12:57:47;101426.21;;;31.61;27.86
42511;BME280;28141;51.120;17.114;2022-11-09T13:00:59;101426.21;;;31.61;28.12
42511;BME280;28141;51.120;17.114;2022-11-09T13:04:05;101426.30;;;31.66;27.68
42511;BME280;28141;51.120;17.114;2022-11-09T13:07:18;101429.69;;;31.73;27.66
42511;BME280;28141;51.120;17.114;2022-11-09T13:20:41;101430.63;;;30.39;28.15
42511;BME280;28141;51.120;17.114;2022-11-09T13:25:01;101430.33;;;30.14;28.21
42511;BME280;28141;51.120;17.114;2022-11-09T13:30:47;101432.69;;;29.84;27.92
42511;BME280;28141;51.120;17.114;2022-11-09T13:34:12;101429.05;;;29.83;29.14
42511;BME280;28141;51.120;17.114;2022-11-09T13:40:52;101447.04;;;29.37;29.78
42511;BME280;28141;51.120;17.114;2022-11-09T13:47:22;101442.37;;;29.09;29.91
42511;BME280;28141;51.120;17.114;2022-11-09T13:50:28;101439.64;;;29.14;30.19
42511;BME280;28141;51.120;17.114;2022-11-09T13:57:16;101442.88;;;29.56;29.97
42511;BME280;28141;51.120;17.114;2022-11-09T14:00:22;101452.91;;;29.24;30.55
42511;BME280;28141;51.120;17.114;2022-11-09T14:03:28;101457.42;;;29.08;29.89
42511;BME280;28141;51.120;17.114;2022-11-09T14:09:22;101451.61;;;27.89;30.89
42511;BME280;28141;51.120;17.114;2022-11-09T14:19:12;101448.92;;;27.94;31.33
42511;BME280;28141;51.120;17.114;2022-11-09T14:22:41;101443.40;;;28.34;31.63
42511;BME280;28141;51.120;17.114;2022-11-09T14:25:45;101458.50;;;28.50;31.46
42511;BME280;28141;51.120;17.114;2022-11-09T14:28:51;101459.18;;;28.97;31.04
42511;BME280;28141;51.120;17.114;2022-11-09T14:31:54;101448.86;;;29.31;31.16
42511;BME280;28141;51.120;17.114;2022-11-09T14:38:18;101444.66;;;29.62;30.59
42511;BME280;28141;51.120;17.114;2022-11-09T14:41:25;101443.27;;;29.82;30.22
42511;BME280;28141;51.120;17.114;2022-11-09T14:44:40;101469.40;;;29.92;29.92
42511;BME280;28141;51.120;17.114;2022-11-09T14:48:18;101461.85;;;29.93;29.99
42511;BME280;28141;51.120;17.114;2022-11-09T14:54:36;101407.69;;;29.94;30.19
42511;BME280;28141;51.120;17.114;2022-11-09T14:57:42;101427.86;;;29.96;29.34
42511;BME280;28141;51.120;17.114;2022-11-09T15:04:29;101455.59;;;29.86;29.61
42511;BME280;28141;51.120;17.114;2022-11-09T15:07:34;101442.16;;;29.83;30.13
42511;BME280;28141;51.120;17.114;2022-11-09T15:10:38;101443.86;;;29.84;30.65
42511;BME280;28141;51.120;17.114;2022-11-09T15:13:42;101452.49;;;29.82;30.39
42511;BME280;28141;51.120;17.114;2022-11-09T15:16:46;101469.70;;;29.74;29.46
42511;BME280;28141;51.120;17.114;2022-11-09T15:19:57;101480.02;;;29.73;29.92
42511;BME280;28141;51.120;17.114;2022-11-09T15:23:04;101477.64;;;29.65;29.60
42511;BME280;28141;51.120;17.114;2022-11-09T15:29:49;101470.98;;;29.50;30.05
42511;BME280;28141;51.120;17.114;2022-11-09T15:32:53;101461.76;;;29.49;30.15
42511;BME280;28141;51.120;17.114;2022-11-09T15:36:02;101467.59;;;29.48;30.15
42511;BME280;28141;51.120;17.114;2022-11-09T15:39:16;101462.27;;;29.46;30.45
42511;BME280;28141;51.120;17.114;2022-11-09T15:42:21;101463.85;;;29.42;30.22
42511;BME280;28141;51.120;17.114;2022-11-09T15:45:24;101448.48;;;29.39;30.06
42511;BME280;28141;51.120;17.114;2022-11-09T15:48:28;101463.79;;;29.37;30.11
42511;BME280;28141;51.120;17.114;2022-11-09T15:51:32;101457.58;;;29.35;30.25
42511;BME280;28141;51.120;17.114;2022-11-09T15:54:35;101459.45;;;29.29;30.40
42511;BME280;28141;51.120;17.114;2022-11-09T15:57:39;101464.69;;;29.26;30.41
42511;BME280;28141;51.120;17.114;2022-11-09T16:01:11;101461.79;;;29.21;30.23
42511;BME280;28141;51.120;17.114;2022-11-09T16:04:14;101448.62;;;29.16;30.10
42511;BME280;28141;51.120;17.114;2022-11-09T16:07:18;101439.90;;;29.13;30.08
42511;BME280;28141;51.120;17.114;2022-11-09T16:10:21;101445.97;;;29.10;30.20
42511;BME280;28141;51.120;17.114;2022-11-09T16:13:25;101450.99;;;29.08;30.06
42511;BME280;28141;51.120;17.114;2022-11-09T16:16:29;101460.95;;;29.03;30.07
42511;BME280;28141;51.120;17.114;2022-11-09T16:19:33;101450.21;;;28.95;30.57
42511;BME280;28141;51.120;17.114;2022-11-09T16:22:36;101463.55;;;28.93;30.21
42511;BME280;28141;51.120;17.114;2022-11-09T16:25:40;101455.92;;;28.89;30.21
42511;BME280;28141;51.120;17.114;2022-11-09T16:28:44;101461.66;;;28.82;30.42
42511;BME280;28141;51.120;17.114;2022-11-09T16:31:48;101461.20;;;28.74;30.43
42511;BME280;28141;51.120;17.114;2022-11-09T16:34:51;101455.51;;;28.68;30.39
42511;BME280;28141;51.120;17.114;2022-11-09T16:37:56;101462.95;;;28.63;30.35
42511;BME280;28141;51.120;17.114;2022-11-09T16:41:29;101472.28;;;28.57;30.67
42511;BME280;28141;51.120;17.114;2022-11-09T16:44:35;101478.62;;;28.52;30.88
42511;BME280;28141;51.120;17.114;2022-11-09T16:47:46;101474.39;;;28.50;30.51
42511;BME280;28141;51.120;17.114;2022-11-09T16:50:51;101483.13;;;28.42;30.71
42511;BME280;28141;51.120;17.114;2022-11-09T16:53:55;101487.27;;;28.39;31.06
42511;BME280;28141;51.120;17.114;2022-11-09T16:56:59;101485.32;;;28.40;30.67
42511;BME280;28141;51.120;17.114;2022-11-09T17:00:07;101494.69;;;28.33;30.96
42511;BME280;28141;51.120;17.114;2022-11-09T17:03:10;101495.77;;;28.32;31.45
42511;BME280;28141;51.120;17.114;2022-11-09T17:06:42;101491.77;;;28.28;31.02
42511;BME280;28141;51.120;17.114;2022-11-09T17:09:46;101492.86;;;28.27;30.98
42511;BME280;28141;51.120;17.114;2022-11-09T17:12:49;101492.01;;;28.27;30.86
42511;BME280;28141;51.120;17.114;2022-11-09T17:15:53;101500.01;;;28.23;31.56
42511;BME280;28141;51.120;17.114;2022-11-09T17:18:57;101502.45;;;28.20;31.24
42511;BME280;28141;51.120;17.114;2022-11-09T17:22:00;101497.98;;;28.19;30.98
42511;BME280;28141;51.120;17.114;2022-11-09T17:25:05;101500.75;;;28.19;30.85
42511;BME280;28141;51.120;17.114;2022-11-09T17:28:09;101490.91;;;28.16;31.25
42511;BME280;28141;51.120;17.114;2022-11-09T17:31:15;101502.53;;;28.13;31.26
42511;BME280;28141;51.120;17.114;2022-11-09T17:34:19;101510.65;;;28.15;30.91
42511;BME280;28141;51.120;17.114;2022-11-09T17:37:51;101521.70;;;28.10;31.22
42511;BME280;28141;51.120;17.114;2022-11-09T17:41:04;101514.66;;;28.07;31.02
42511;BME280;28141;51.120;17.114;2022-11-09T17:44:07;101508.38;;;28.00;31.61
42511;BME280;28141;51.120;17.114;2022-11-09T17:47:11;101510.09;;;28.01;31.79
42511;BME280;28141;51.120;17.114;2022-11-09T17:50:15;101503.66;;;28.01;31.60
42511;BME280;28141;51.120;17.114;2022-11-09T17:53:18;101508.38;;;28.00;31.27
42511;BME280;28141;51.120;17.114;2022-11-09T17:56:21;101506.69;;;27.99;31.60
42511;BME280;28141;51.120;17.114;2022-11-09T17:59:25;101511.65;;;27.97;31.50
42511;BME280;28141;51.120;17.114;2022-11-09T18:02:28;101509.34;;;27.94;31.43
42511;BME280;28141;51.120;17.114;2022-11-09T18:05:39;101514.05;;;27.93;31.76
42511;BME280;28141;51.120;17.114;2022-11-09T18:09:09;101520.96;;;27.91;31.64